Bookmark and Share
Track history (hours):
 

Emmanuel Tomasos

Last reported at 2014-Apr-24 03:32 UTC. Time now 2014-Apr-24 03:52 UTC.
Position N 56°14' E 018°27'.

Length 181 m; draft 10.5 m.

Type: Tanker. MMSI: 311459000.

NotesDate/timePositionNaut miles runAvg speedWind from/ knotsBaromVisibWave heightAir tempDewpointWater temp
2014-Apr-24 03:32N 56°14' E 018°27'25712.8
2014-Apr-23 07:33N 59°38' E 023°20'1313.5
2014-Apr-23 06:33N 59°41' E 023°46'1313.5
2014-Apr-23 05:33N 59°45' E 024°11'1313.3
2014-Apr-23 04:33N 59°49' E 024°37'6013.5
2014-Apr-23 00:06N 60°01' E 026°34'  
2014-Apr-18 08:03N 60°09' E 027°40'913.9
2014-Apr-18 07:25N 60°04' E 027°25'1313.9
2014-Apr-18 06:28N 59°58' E 027°03'1313.7
2014-Apr-18 05:33N 59°59' E 026°38'5613.9
2014-Apr-18 01:33N 59°46' E 024°50'1413.9
2014-Apr-18 00:33N 59°43' E 024°23'1010.2
2014-Apr-17 23:34N 59°33' E 024°26'4 3.8
2014-Apr-17 22:32N 59°30' E 024°31'0 0.0
2014-Apr-17 21:32N 59°29' E 024°31'0 0.0
2014-Apr-17 20:32N 59°29' E 024°31'0 0.0
2014-Apr-17 19:32N 59°29' E 024°31'2 1.7
2014-Apr-17 18:33N 59°30' E 024°28'1313.0
2014-Apr-17 17:33N 59°30' E 024°03'1413.9
2014-Apr-17 16:33N 59°30' E 023°35'1514.0
2014-Apr-17 15:29N 59°27' E 023°06'29313.3
2014-Apr-16 17:25N 55°50' E 016°59'1313.9
2014-Apr-16 16:29N 55°47' E 016°37'1913.9
2014-Apr-16 15:07N 55°42' E 016°04'814.0
2014-Apr-16 14:33N 55°40' E 015°51'1414.0
2014-Apr-16 13:33N 55°36' E 015°27'1413.7
2014-Apr-16 12:33N 55°30' E 015°05'1413.9
2014-Apr-16 11:33N 55°25' E 014°43'1413.6
2014-Apr-16 10:34N 55°15' E 014°26'1313.1
2014-Apr-16 09:33N 55°11' E 014°04'1313.4
2014-Apr-16 08:33N 55°12' E 013°41'1413.5
2014-Apr-16 07:33N 55°13' E 013°17'1413.5
2014-Apr-16 06:33N 55°14' E 012°54'1211.6
2014-Apr-16 05:33N 55°22' E 012°38'1212.0
2014-Apr-16 04:33N 55°33' E 012°42'1111.4
2014-Apr-16 03:33N 55°45' E 012°41'1313.2
2014-Apr-16 02:33N 55°58' E 012°38'1211.8
2014-Apr-16 01:34N 56°08' E 012°28'1413.7
2014-Apr-16 00:33N 56°16' E 012°08'1312.9
2014-Apr-15 23:33N 56°28' E 011°59'1414.0
2014-Apr-15 22:33N 56°42' E 011°54'1413.8
2014-Apr-15 21:32N 56°55' E 011°46'1313.6
2014-Apr-15 20:33N 57°08' E 011°37'1413.9
2014-Apr-15 19:34N 57°21' E 011°29'1313.3
2014-Apr-15 18:33N 57°32' E 011°15'1413.5
2014-Apr-15 17:34N 57°41' E 010°57'1313.0
2014-Apr-15 16:32N 57°49' E 010°37'1313.3
2014-Apr-15 15:33N 57°49' E 010°12'9911.0
2014-Apr-15 06:33N 57°05' E 007°27'  

Dump ship's entire track history

sailing weather and tide predictions

Emmanuel Tomasos — C6SS7 — position and weather